Time;durP1;ratioP1;P1;durP2;ratioP2;P2;SDS_P1;SDS_P2;PMS_P1;PMS_P2;Temp;Humidity;BMP_temperature;BMP_pressure;BME280_temperature;BME280_humidity;BME280_pressure;Samples;Min_cycle;Max_cycle;Signal;HPM_P1;HPM_P2
2022/09/08 00:00:13;;;;;;;10.65;4.03;;;;;;;;;;4991969;28;20506;-66
2022/09/08 00:02:43;;;;;;;9.02;4.60;;;;;;;;;;4991613;28;20420;-67
2022/09/08 00:05:18;;;;;;;9.63;4.78;;;;;;;;;;4959261;28;20062;-67
2022/09/08 00:07:50;;;;;;;9.27;4.63;;;;;;;;;;4920854;28;20062;-67
2022/09/08 00:10:20;;;;;;;10.77;4.45;;;;;;;;;;4951669;28;20525;-67
2022/09/08 00:12:50;;;;;;;13.85;5.93;;;;;;;;;;4965374;28;20526;-67
2022/09/08 00:15:21;;;;;;;11.10;4.80;;;;;;;;;;4972531;28;20059;-67
2022/09/08 00:17:51;;;;;;;9.98;4.25;;;;;;;;;;4972468;28;20063;-67
2022/09/08 00:20:20;;;;;;;14.48;5.03;;;;;;;;;;4955893;28;20070;-67
2022/09/08 00:22:50;;;;;;;11.00;4.57;;;;;;;;;;4955452;28;20073;-67
2022/09/08 00:25:21;;;;;;;13.63;5.07;;;;;;;;;;4976262;28;20059;-67
2022/09/08 00:27:51;;;;;;;12.90;5.25;;;;;;;;;;4994312;28;20054;-67
2022/09/08 00:30:21;;;;;;;10.77;4.70;;;;;;;;;;4994866;28;20045;-67
2022/09/08 00:32:51;;;;;;;8.95;4.40;;;;;;;;;;4994872;28;20050;-67
2022/09/08 00:35:22;;;;;;;8.90;3.97;;;;;;;;;;5010793;28;20057;-67
2022/09/08 00:37:55;;;;;;;8.68;4.13;;;;;;;;;;4979392;28;20081;-67
2022/09/08 00:40:27;;;;;;;10.68;4.10;;;;;;;;;;4981462;28;20064;-67
2022/09/08 00:43:05;;;;;;;9.60;4.05;;;;;;;;;;4981099;28;20085;-67
2022/09/08 00:45:44;;;;;;;8.90;3.92;;;;;;;;;;4981629;28;20061;-67
2022/09/08 00:48:19;;;;;;;10.95;4.20;;;;;;;;;;5030177;28;20057;-67
2022/09/08 00:50:49;;;;;;;10.50;4.45;;;;;;;;;;4997487;28;20091;-66
2022/09/08 00:53:20;;;;;;;10.32;4.50;;;;;;;;;;4990685;28;20530;-67
2022/09/08 00:55:50;;;;;;;10.45;4.22;;;;;;;;;;5010158;28;20061;-67
2022/09/08 00:58:21;;;;;;;10.98;4.35;;;;;;;;;;5010443;28;20061;-67
2022/09/08 01:00:51;;;;;;;9.25;4.13;;;;;;;;;;4977569;28;20058;-66
2022/09/08 01:03:21;;;;;;;10.23;4.07;;;;;;;;;;4971088;28;20063;-67
2022/09/08 01:06:02;;;;;;;10.38;4.00;;;;;;;;;;4971108;28;20062;-66
2022/09/08 01:14:53;;;;;;;9.00;4.35;;;;;;;;;;5009970;28;20569;-66
2022/09/08 01:17:26;;;;;;;10.38;4.53;;;;;;;;;;4993472;28;20058;-67
2022/09/08 01:19:58;;;;;;;10.95;4.13;;;;;;;;;;5009914;28;20058;-67
2022/09/08 01:22:31;;;;;;;;;;;;;;;;;;4971140;28;20550;-66
2022/09/08 01:25:10;;;;;;;10.95;4.32;;;;;;;;;;4970990;28;19926;-66
2022/09/08 01:27:42;;;;;;;9.85;5.15;;;;;;;;;;4970848;28;20055;-67
2022/09/08 01:30:13;;;;;;;9.38;4.68;;;;;;;;;;4958597;28;20054;-66
2022/09/08 01:32:45;;;;;;;13.02;4.60;;;;;;;;;;4986893;28;20069;-66
2022/09/08 01:35:38;;;;;;;10.90;4.90;;;;;;;;;;4970765;28;20061;-67
2022/09/08 01:38:10;;;;;;;13.15;4.65;;;;;;;;;;4977577;28;20058;-66
2022/09/08 01:40:40;;;;;;;10.27;4.82;;;;;;;;;;4951126;29;20054;-67
2022/09/08 01:43:11;;;;;;;10.77;4.88;;;;;;;;;;4951396;29;20055;-67
2022/09/08 01:45:41;;;;;;;10.50;4.25;;;;;;;;;;4935243;29;20059;-67
2022/09/08 01:48:11;;;;;;;10.23;4.70;;;;;;;;;;4959019;28;20070;-67
2022/09/08 01:50:40;;;;;;;10.00;4.65;;;;;;;;;;4954625;28;20058;-67
2022/09/08 01:53:11;;;;;;;9.70;4.25;;;;;;;;;;4954355;28;20059;-66
2022/09/08 01:55:41;;;;;;;14.13;4.38;;;;;;;;;;4970390;28;20055;-66
2022/09/08 01:58:11;;;;;;;11.85;4.30;;;;;;;;;;4955007;28;20067;-67
2022/09/08 02:00:42;;;;;;;11.35;4.55;;;;;;;;;;4998722;28;20057;-67
2022/09/08 02:03:13;;;;;;;9.73;4.63;;;;;;;;;;5009462;28;20053;-67
2022/09/08 02:05:44;;;;;;;9.75;4.25;;;;;;;;;;5009104;28;20417;-66
2022/09/08 02:08:15;;;;;;;8.18;4.15;;;;;;;;;;5009471;28;20049;-67
2022/09/08 02:10:53;;;;;;;8.57;4.13;;;;;;;;;;5009337;28;20054;-66
2022/09/08 02:13:24;;;;;;;10.15;4.53;;;;;;;;;;5009649;28;20441;-66
2022/09/08 02:16:00;;;;;;;13.65;5.07;;;;;;;;;;5009379;28;20038;-67
2022/09/08 02:18:32;;;;;;;10.27;3.97;;;;;;;;;;5034450;28;20061;-67
2022/09/08 02:21:09;;;;;;;9.50;4.47;;;;;;;;;;5032506;28;20055;-66
2022/09/08 02:23:42;;;;;;;9.85;4.80;;;;;;;;;;5051093;28;20049;-67
2022/09/08 02:26:21;;;;;;;9.98;4.57;;;;;;;;;;5050061;28;20401;-66
2022/09/08 02:28:53;;;;;;;11.50;5.00;;;;;;;;;;5035830;28;20047;-67
2022/09/08 02:31:26;;;;;;;12.63;4.95;;;;;;;;;;5018935;28;20055;-67
2022/09/08 02:33:57;;;;;;;9.18;4.38;;;;;;;;;;5055568;28;20061;-66
2022/09/08 02:36:27;;;;;;;9.93;4.22;;;;;;;;;;5072970;28;20060;-66
2022/09/08 02:38:58;;;;;;;9.88;4.13;;;;;;;;;;5089497;28;20055;-66
2022/09/08 02:41:29;;;;;;;11.90;4.60;;;;;;;;;;5072527;28;20063;-67
2022/09/08 02:43:59;;;;;;;8.40;3.88;;;;;;;;;;5055718;28;20120;-67
2022/09/08 02:46:29;;;;;;;12.32;4.97;;;;;;;;;;5039486;28;20167;-67
2022/09/08 02:49:00;;;;;;;13.65;5.40;;;;;;;;;;5072515;28;20049;-66
2022/09/08 02:51:30;;;;;;;9.32;4.63;;;;;;;;;;5022996;28;20059;-66
2022/09/08 02:54:01;;;;;;;11.50;4.88;;;;;;;;;;5072363;28;20064;-66
2022/09/08 02:56:31;;;;;;;10.52;4.20;;;;;;;;;;5072692;28;20471;-66
2022/09/08 02:59:02;;;;;;;10.27;5.00;;;;;;;;;;5072355;28;20053;-66
2022/09/08 03:01:32;;;;;;;8.85;4.38;;;;;;;;;;5072458;28;20048;-67
2022/09/08 03:04:02;;;;;;;10.90;4.43;;;;;;;;;;5052078;28;20549;-66
2022/09/08 03:06:32;;;;;;;9.68;4.32;;;;;;;;;;5041855;28;20135;-66
2022/09/08 03:09:03;;;;;;;11.43;4.38;;;;;;;;;;5016145;28;20064;-66
2022/09/08 03:11:34;;;;;;;16.13;4.47;;;;;;;;;;5032358;28;20520;-66
2022/09/08 03:14:04;;;;;;;11.02;4.50;;;;;;;;;;5032224;28;20056;-66
2022/09/08 03:16:34;;;;;;;10.35;4.13;;;;;;;;;;5032254;28;20527;-67
2022/09/08 03:19:05;;;;;;;11.10;4.15;;;;;;;;;;5032271;28;20056;-67
2022/09/08 03:21:35;;;;;;;11.73;4.25;;;;;;;;;;5031884;28;20056;-67
2022/09/08 03:24:06;;;;;;;14.57;4.68;;;;;;;;;;5032279;28;20057;-67
2022/09/08 03:26:37;;;;;;;12.43;4.30;;;;;;;;;;5031989;28;20050;-66
2022/09/08 03:29:07;;;;;;;10.23;4.15;;;;;;;;;;5011737;28;20049;-66
2022/09/08 03:31:39;;;;;;;9.70;4.53;;;;;;;;;;4996365;28;20061;-66
2022/09/08 03:34:09;;;;;;;9.45;4.40;;;;;;;;;;4996160;28;20058;-66
2022/09/08 03:36:39;;;;;;;9.85;3.97;;;;;;;;;;5012011;28;20414;-67
2022/09/08 03:39:11;;;;;;;11.13;4.68;;;;;;;;;;5012016;28;20053;-66
2022/09/08 03:41:41;;;;;;;11.07;4.13;;;;;;;;;;4962566;28;20057;-66
2022/09/08 03:44:12;;;;;;;10.85;4.40;;;;;;;;;;5010658;28;20406;-67
2022/09/08 03:46:42;;;;;;;13.30;4.32;;;;;;;;;;5031350;28;20041;-67
2022/09/08 03:49:12;;;;;;;9.90;4.22;;;;;;;;;;5031305;28;20417;-67
2022/09/08 03:51:42;;;;;;;9.13;4.03;;;;;;;;;;5031188;28;20057;-67
2022/09/08 03:57:06;;;;;;;9.52;4.35;;;;;;;;;;5011575;28;20058;-67
2022/09/08 03:59:37;;;;;;;11.48;4.10;;;;;;;;;;4978675;28;20061;-66
2022/09/08 04:02:07;;;;;;;10.85;4.10;;;;;;;;;;5011454;28;20054;-66
2022/09/08 04:04:37;;;;;;;10.10;3.90;;;;;;;;;;5011111;28;20062;-67
2022/09/08 04:07:09;;;;;;;9.90;5.00;;;;;;;;;;5024462;28;20080;-67
2022/09/08 04:09:42;;;;;;;11.68;4.97;;;;;;;;;;5030982;28;20053;-67
2022/09/08 04:12:12;;;;;;;;;;;;;;;;;;4991283;28;20054;-67
2022/09/08 04:14:43;;;;;;;12.48;4.82;;;;;;;;;;4991614;28;19921;-67
2022/09/08 04:17:13;;;;;;;12.13;5.00;;;;;;;;;;4991792;28;20055;-66
2022/09/08 04:19:44;;;;;;;9.93;5.10;;;;;;;;;;4991814;28;20042;-66
2022/09/08 04:22:21;;;;;;;9.98;4.38;;;;;;;;;;4991445;28;20521;-67
2022/09/08 04:24:52;;;;;;;11.32;4.15;;;;;;;;;;4961660;28;20050;-66
2022/09/08 04:27:25;;;;;;;10.35;3.88;;;;;;;;;;4971856;28;20054;-67
2022/09/08 04:29:55;;;;;;;10.90;4.40;;;;;;;;;;4939887;28;20054;-67
2022/09/08 04:32:25;;;;;;;13.40;4.75;;;;;;;;;;4939862;28;20059;-66
2022/09/08 04:34:55;;;;;;;10.20;4.43;;;;;;;;;;4971045;28;20062;-67
2022/09/08 04:37:25;;;;;;;10.88;4.22;;;;;;;;;;4958662;28;20756;-67
2022/09/08 04:39:55;;;;;;;11.57;4.35;;;;;;;;;;4971292;28;20062;-67
2022/09/08 04:42:25;;;;;;;10.23;4.55;;;;;;;;;;4991008;28;20084;-66
2022/09/08 04:44:55;;;;;;;9.65;4.45;;;;;;;;;;4991091;28;20081;-67
2022/09/08 04:47:25;;;;;;;11.07;4.45;;;;;;;;;;4991185;28;20058;-67
2022/09/08 04:49:55;;;;;;;15.45;4.18;;;;;;;;;;4990720;28;20057;-67
2022/09/08 04:52:25;;;;;;;8.32;3.85;;;;;;;;;;4990754;28;20062;-67
2022/09/08 04:54:59;;;;;;;12.95;4.47;;;;;;;;;;4990599;28;20051;-67
2022/09/08 04:57:29;;;;;;;9.02;4.63;;;;;;;;;;4990867;28;20061;-67
2022/09/08 04:59:59;;;;;;;9.20;4.47;;;;;;;;;;4971169;28;20074;-66
2022/09/08 05:02:30;;;;;;;12.25;4.82;;;;;;;;;;4951459;28;20515;-67
2022/09/08 05:05:00;;;;;;;9.07;4.03;;;;;;;;;;4960934;28;20063;-67
2022/09/08 05:07:30;;;;;;;13.63;4.40;;;;;;;;;;4971216;28;20059;-67
2022/09/08 05:10:01;;;;;;;9.70;4.32;;;;;;;;;;4920835;28;20054;-66
2022/09/08 05:12:31;;;;;;;11.30;3.70;;;;;;;;;;4932794;29;20581;-67
2022/09/08 05:15:01;;;;;;;8.18;4.13;;;;;;;;;;4891844;29;20075;-67
2022/09/08 05:17:32;;;;;;;10.32;5.03;;;;;;;;;;4932381;29;20059;-67
2022/09/08 05:20:02;;;;;;;10.07;4.43;;;;;;;;;;4961276;28;20415;-66
2022/09/08 05:22:32;;;;;;;10.13;4.38;;;;;;;;;;4970845;28;20059;-66
2022/09/08 05:25:02;;;;;;;11.13;4.30;;;;;;;;;;4970952;28;20063;-67
2022/09/08 05:27:33;;;;;;;9.90;4.38;;;;;;;;;;4961447;28;20202;-67
2022/09/08 05:30:04;;;;;;;9.75;4.65;;;;;;;;;;4919412;29;20059;-67
2022/09/08 05:32:35;;;;;;;12.52;5.25;;;;;;;;;;4935990;29;20051;-67
2022/09/08 05:35:07;;;;;;;10.75;4.43;;;;;;;;;;4919855;29;20059;-67
2022/09/08 05:37:38;;;;;;;12.65;5.40;;;;;;;;;;4964500;28;20422;-67
2022/09/08 05:40:08;;;;;;;13.80;4.80;;;;;;;;;;5009599;28;20053;-67
2022/09/08 05:42:39;;;;;;;10.95;4.35;;;;;;;;;;5029434;28;20054;-67
2022/09/08 05:45:10;;;;;;;10.45;4.35;;;;;;;;;;4996566;28;20053;-66
2022/09/08 05:47:40;;;;;;;8.88;4.25;;;;;;;;;;5029344;28;20524;-67
2022/09/08 05:50:10;;;;;;;12.80;4.20;;;;;;;;;;5049138;28;20054;-67
2022/09/08 05:52:40;;;;;;;13.98;4.40;;;;;;;;;;5068935;28;20052;-66
2022/09/08 05:55:10;;;;;;;11.48;5.72;;;;;;;;;;5059036;28;20429;-67
2022/09/08 05:57:40;;;;;;;13.10;5.03;;;;;;;;;;5049149;28;20505;-66
2022/09/08 06:00:11;;;;;;;11.35;4.90;;;;;;;;;;5049014;28;20041;-66
2022/09/08 06:02:41;;;;;;;12.80;5.25;;;;;;;;;;5048919;28;20067;-66
2022/09/08 06:05:12;;;;;;;16.08;5.32;;;;;;;;;;5048850;28;20516;-66
2022/09/08 06:07:42;;;;;;;13.07;5.00;;;;;;;;;;5014964;28;20052;-67
2022/09/08 06:10:12;;;;;;;13.75;5.80;;;;;;;;;;5052604;28;20058;-67
2022/09/08 06:12:43;;;;;;;15.30;5.15;;;;;;;;;;5012697;28;20064;-66
2022/09/08 06:15:14;;;;;;;17.42;5.28;;;;;;;;;;4996285;28;20049;-67
2022/09/08 06:17:44;;;;;;;14.45;6.38;;;;;;;;;;5028754;28;20060;-66
2022/09/08 06:20:14;;;;;;;15.98;6.55;;;;;;;;;;4980014;28;20049;-66
2022/09/08 06:22:44;;;;;;;15.45;6.40;;;;;;;;;;5028811;28;20156;-67
2022/09/08 06:25:15;;;;;;;16.42;6.55;;;;;;;;;;5028943;28;20053;-66
2022/09/08 06:27:54;;;;;;;13.98;5.85;;;;;;;;;;5012700;28;20053;-66
2022/09/08 06:30:25;;;;;;;13.90;5.78;;;;;;;;;;4990687;28;20050;-66
2022/09/08 06:33:18;;;;;;;13.13;5.55;;;;;;;;;;4989106;28;20093;-66
2022/09/08 06:35:58;;;;;;;14.02;5.00;;;;;;;;;;4989261;28;20061;-67
2022/09/08 06:39:08;;;;;;;10.00;4.40;;;;;;;;;;4974237;28;20522;-66
2022/09/08 06:41:51;;;;;;;10.73;4.63;;;;;;;;;;4957646;28;20066;-66
2022/09/08 06:44:28;;;;;;;13.82;5.35;;;;;;;;;;4935242;28;20062;-66
2022/09/08 06:46:58;;;;;;;14.82;5.28;;;;;;;;;;4950281;28;20059;-66
2022/09/08 06:49:30;;;;;;;18.13;5.50;;;;;;;;;;4956111;28;20062;-66
2022/09/08 06:52:14;;;;;;;14.85;5.57;;;;;;;;;;4950324;29;20066;-66
2022/09/08 06:54:57;;;;;;;12.82;4.88;;;;;;;;;;4950189;29;20055;-66
2022/09/08 06:58:04;;;;;;;13.60;4.85;;;;;;;;;;4950544;29;20055;-67
2022/09/08 07:00:51;;;;;;;12.93;5.10;;;;;;;;;;4893578;29;20505;-66
2022/09/08 07:03:43;;;;;;;11.13;5.10;;;;;;;;;;4893079;29;20076;-66
2022/09/08 07:06:18;;;;;;;11.18;4.10;;;;;;;;;;4877640;29;20506;-66
2022/09/08 07:09:04;;;;;;;11.52;5.60;;;;;;;;;;4859497;29;20062;-66
2022/09/08 07:11:37;;;;;;;12.43;4.85;;;;;;;;;;4856172;29;20064;-66
2022/09/08 07:14:32;;;;;;;8.52;4.40;;;;;;;;;;4883741;29;20057;-66
2022/09/08 07:17:06;;;;;;;11.68;4.50;;;;;;;;;;4893342;29;20056;-66
2022/09/08 07:19:54;;;;;;;10.38;4.32;;;;;;;;;;4931772;29;20051;-67
2022/09/08 07:22:50;;;;;;;13.68;4.60;;;;;;;;;;4934999;29;20435;-66
2022/09/08 07:25:35;;;;;;;13.20;5.10;;;;;;;;;;4934608;29;20066;-66
2022/09/08 07:28:15;;;;;;;13.10;4.97;;;;;;;;;;4953669;29;20074;-66
2022/09/08 07:30:54;;;;;;;10.82;4.97;;;;;;;;;;4917455;29;20060;-66
2022/09/08 07:33:27;;;;;;;;;;;;;;;;;;4917606;29;20067;-66
2022/09/08 07:36:10;;;;;;;10.27;4.35;;;;;;;;;;4884420;29;19930;-66
2022/09/08 07:38:45;;;;;;;12.43;4.88;;;;;;;;;;4979866;28;20054;-66
2022/09/08 07:41:29;;;;;;;13.75;5.20;;;;;;;;;;4992653;28;20101;-66
2022/09/08 07:44:02;;;;;;;11.45;4.72;;;;;;;;;;4992347;28;20058;-66
2022/09/08 07:46:54;;;;;;;12.23;5.32;;;;;;;;;;4975924;28;20411;-66
2022/09/08 07:49:30;;;;;;;18.08;6.72;;;;;;;;;;4992067;28;20402;-66
2022/09/08 07:52:29;;;;;;;16.95;7.15;;;;;;;;;;4992215;28;20050;-66
2022/09/08 07:55:05;;;;;;;15.30;6.20;;;;;;;;;;4992242;28;20200;-66
2022/09/08 07:58:14;;;;;;;12.35;5.13;;;;;;;;;;4991878;28;20059;-66
2022/09/08 08:01:04;;;;;;;14.00;5.53;;;;;;;;;;4943576;28;20054;-66
2022/09/08 08:03:36;;;;;;;14.30;5.78;;;;;;;;;;4991937;28;20050;-66
2022/09/08 08:06:35;;;;;;;15.82;6.18;;;;;;;;;;4966428;28;20055;-66
2022/09/08 08:09:27;;;;;;;13.00;5.35;;;;;;;;;;4914600;29;20448;-66
2022/09/08 08:12:00;;;;;;;12.40;5.35;;;;;;;;;;4915015;29;20413;-66
2022/09/08 08:14:46;;;;;;;21.48;7.00;;;;;;;;;;4914857;29;20063;-66
2022/09/08 08:17:32;;;;;;;15.55;6.55;;;;;;;;;;4914686;29;20100;-66
2022/09/08 08:20:36;;;;;;;17.63;7.82;;;;;;;;;;4914454;29;20061;-66
2022/09/08 08:23:24;;;;;;;18.20;7.68;;;;;;;;;;4895338;29;20059;-66
2022/09/08 08:26:25;;;;;;;19.15;7.65;;;;;;;;;;4895598;29;20521;-66
2022/09/08 08:29:26;;;;;;;19.08;7.45;;;;;;;;;;4895562;29;20048;-66
2022/09/08 08:32:13;;;;;;;16.20;7.25;;;;;;;;;;4894964;29;20048;-66
2022/09/08 08:35:22;;;;;;;15.88;6.70;;;;;;;;;;4895591;29;20072;-66
2022/09/08 08:37:53;;;;;;;14.82;6.38;;;;;;;;;;4876868;29;20077;-66
2022/09/08 08:40:38;;;;;;;19.08;7.82;;;;;;;;;;4914155;29;20052;-66
2022/09/08 08:43:27;;;;;;;14.35;6.22;;;;;;;;;;4909705;29;20067;-66
2022/09/08 08:46:25;;;;;;;15.88;7.28;;;;;;;;;;4902292;29;20056;-67
2022/09/08 08:49:04;;;;;;;22.70;7.10;;;;;;;;;;4930931;28;20455;-66
2022/09/08 08:52:11;;;;;;;15.25;5.97;;;;;;;;;;4952310;28;20059;-66
2022/09/08 08:55:09;;;;;;;12.68;5.88;;;;;;;;;;4952267;28;20059;-66
2022/09/08 08:58:06;;;;;;;14.57;5.95;;;;;;;;;;4979613;28;20069;-66
2022/09/08 09:01:27;;;;;;;14.30;6.13;;;;;;;;;;4999354;28;20062;-66
2022/09/08 09:04:21;;;;;;;14.07;5.60;;;;;;;;;;4990511;28;20054;-66
2022/09/08 09:07:07;;;;;;;13.57;5.82;;;;;;;;;;5009561;28;20536;-66
2022/09/08 09:09:52;;;;;;;;;;;;;;;;;;5010749;28;20073;-66
2022/09/08 09:12:44;;;;;;;13.32;5.80;;;;;;;;;;5009935;28;19921;-66
2022/09/08 09:15:37;;;;;;;14.35;6.07;;;;;;;;;;4961749;28;20057;-66
2022/09/08 09:19:06;;;;;;;11.90;4.75;;;;;;;;;;5010123;28;20058;-66
2022/09/08 09:22:02;;;;;;;11.65;5.20;;;;;;;;;;5010383;28;20050;-66
2022/09/08 09:25:03;;;;;;;13.27;5.18;;;;;;;;;;5010135;28;20441;-66
2022/09/08 09:27:44;;;;;;;11.88;5.00;;;;;;;;;;5010149;28;20564;-66
2022/09/08 09:30:53;;;;;;;14.82;5.60;;;;;;;;;;5010001;28;20053;-66
2022/09/08 09:34:01;;;;;;;10.43;4.93;;;;;;;;;;4932474;29;20059;-66
2022/09/08 09:36:46;;;;;;;15.65;4.65;;;;;;;;;;4932450;29;20067;-66
2022/09/08 09:39:45;;;;;;;14.90;5.43;;;;;;;;;;4878564;29;20057;-66
2022/09/08 09:42:32;;;;;;;11.00;4.75;;;;;;;;;;4838658;29;20058;-66
2022/09/08 09:45:25;;;;;;;14.80;5.57;;;;;;;;;;4851501;29;20053;-66
2022/09/08 09:48:11;;;;;;;13.20;5.25;;;;;;;;;;4811748;29;20072;-66
2022/09/08 09:50:59;;;;;;;13.68;5.28;;;;;;;;;;4889668;29;20063;-66
2022/09/08 09:53:39;;;;;;;13.13;5.63;;;;;;;;;;4878500;29;20061;-66
2022/09/08 09:56:27;;;;;;;;;;;;;;;;;;4894639;29;20061;-66
2022/09/08 09:59:51;;;;;;;15.98;5.45;;;;;;;;;;4879001;29;19931;-67
2022/09/08 10:02:36;;;;;;;14.02;5.68;;;;;;;;;;4841449;29;20068;-67
2022/09/08 10:05:28;;;;;;;11.57;5.45;;;;;;;;;;4856886;29;20410;-66
2022/09/08 10:08:31;;;;;;;16.20;5.07;;;;;;;;;;4856972;29;20057;-66
2022/09/08 10:11:08;;;;;;;20.90;5.75;;;;;;;;;;4844802;29;20061;-67
2022/09/08 10:14:06;;;;;;;11.73;4.75;;;;;;;;;;4838256;29;20410;-66
2022/09/08 10:17:15;;;;;;;11.40;4.93;;;;;;;;;;4863218;29;20065;-66
2022/09/08 10:20:19;;;;;;;11.63;5.10;;;;;;;;;;4903418;29;20063;-66
2022/09/08 10:22:58;;;;;;;12.25;5.20;;;;;;;;;;4950844;29;20055;-66
2022/09/08 10:25:47;;;;;;;12.48;5.88;;;;;;;;;;4950824;29;20154;-66
2022/09/08 10:28:57;;;;;;;10.65;5.07;;;;;;;;;;4892181;28;20050;-66
2022/09/08 10:32:04;;;;;;;11.20;5.55;;;;;;;;;;4931547;29;20082;-67
2022/09/08 10:35:04;;;;;;;15.90;5.90;;;;;;;;;;4950681;29;20103;-66
2022/09/08 10:38:17;;;;;;;14.63;5.85;;;;;;;;;;4934743;29;20056;-66
2022/09/08 10:41:28;;;;;;;13.70;5.95;;;;;;;;;;4931349;29;20079;-67
2022/09/08 10:44:14;;;;;;;16.45;6.85;;;;;;;;;;4877717;29;20068;-66
2022/09/08 10:47:12;;;;;;;;;;;;;;;;;;4892702;29;20056;-67
2022/09/08 10:49:46;;;;;;;14.20;6.53;;;;;;;;;;4893754;29;19923;-67
2022/09/08 10:52:27;;;;;;;17.13;7.60;;;;;;;;;;4893432;29;20164;-67
2022/09/08 10:55:47;;;;;;;14.60;6.82;;;;;;;;;;5109318;27;20494;-67
2022/09/08 10:58:18;;;;;;;13.40;6.65;;;;;;;;;;5109535;28;20048;-67
2022/09/08 11:01:19;;;;;;;14.38;6.50;;;;;;;;;;5109069;28;20527;-67
2022/09/08 11:04:27;;;;;;;17.00;6.72;;;;;;;;;;5106953;28;20419;-67
2022/09/08 11:07:34;;;;;;;18.55;8.00;;;;;;;;;;5108999;28;20502;-68
2022/09/08 11:10:39;;;;;;;15.68;7.00;;;;;;;;;;5109048;28;20036;-68
2022/09/08 11:13:31;;;;;;;17.98;8.60;;;;;;;;;;5106862;28;20052;-68
2022/09/08 11:16:44;;;;;;;21.25;9.40;;;;;;;;;;5109064;28;20048;-67
2022/09/08 11:19:20;;;;;;;21.17;9.13;;;;;;;;;;5046004;28;20120;-67
2022/09/08 11:22:39;;;;;;;19.55;8.60;;;;;;;;;;5012878;28;20076;-67
2022/09/08 11:25:43;;;;;;;19.88;9.10;;;;;;;;;;5045993;28;20060;-68
2022/09/08 11:28:40;;;;;;;22.55;11.13;;;;;;;;;;5045638;28;20061;-68
2022/09/08 11:31:47;;;;;;;20.83;10.43;;;;;;;;;;5045620;28;20049;-68
2022/09/08 11:34:42;;;;;;;25.50;9.65;;;;;;;;;;5045274;28;20053;-68
2022/09/08 11:37:30;;;;;;;20.30;9.38;;;;;;;;;;5045323;28;20072;-68
2022/09/08 11:40:31;;;;;;;20.13;9.45;;;;;;;;;;5045596;28;20064;-69
2022/09/08 11:43:28;;;;;;;16.30;9.00;;;;;;;;;;5011944;28;20060;-69
2022/09/08 11:46:23;;;;;;;14.18;7.35;;;;;;;;;;5024827;28;20053;-69
2022/09/08 11:49:01;;;;;;;14.23;7.20;;;;;;;;;;5025416;28;20049;-69
2022/09/08 11:52:38;;;;;;;16.08;7.65;;;;;;;;;;5025178;28;20054;-69
2022/09/08 11:55:46;;;;;;;17.40;8.10;;;;;;;;;;4927934;29;20055;-68
2022/09/08 11:58:54;;;;;;;21.20;8.73;;;;;;;;;;4928039;29;20428;-68
2022/09/08 12:01:40;;;;;;;15.82;8.40;;;;;;;;;;4927846;29;20064;-69
2022/09/08 12:04:37;;;;;;;14.05;8.18;;;;;;;;;;4928406;29;20067;-69
2022/09/08 12:07:25;;;;;;;15.13;8.23;;;;;;;;;;4915435;29;20060;-69
2022/09/08 12:10:01;;;;;;;18.00;9.32;;;;;;;;;;4914825;29;20060;-69
2022/09/08 12:12:46;;;;;;;15.88;8.23;;;;;;;;;;4933909;29;20048;-69
2022/09/08 12:15:40;;;;;;;17.08;8.50;;;;;;;;;;4918180;29;20051;-69
2022/09/08 12:18:22;;;;;;;15.65;7.80;;;;;;;;;;4918276;29;20071;-69
2022/09/08 12:21:03;;;;;;;16.40;8.18;;;;;;;;;;4934306;29;20101;-70
2022/09/08 12:24:14;;;;;;;17.38;7.63;;;;;;;;;;4952373;28;20078;-70
2022/09/08 12:26:55;;;;;;;17.92;7.85;;;;;;;;;;4896024;29;20056;-70
2022/09/08 12:29:35;;;;;;;19.55;8.50;;;;;;;;;;4896282;29;20540;-71
2022/09/08 12:32:20;;;;;;;15.30;8.00;;;;;;;;;;4919868;29;20516;-70
2022/09/08 12:35:05;;;;;;;14.07;6.82;;;;;;;;;;4952863;29;20055;-69
2022/09/08 12:37:52;;;;;;;14.05;6.20;;;;;;;;;;4953073;29;20063;-69
2022/09/08 12:40:34;;;;;;;17.23;6.43;;;;;;;;;;4952997;29;20062;-69
2022/09/08 12:43:21;;;;;;;14.40;6.20;;;;;;;;;;4952632;29;20083;-70
2022/09/08 12:46:07;;;;;;;13.30;6.40;;;;;;;;;;4952871;28;20051;-70
2022/09/08 12:49:05;;;;;;;12.95;6.47;;;;;;;;;;4970658;28;20065;-70
2022/09/08 12:51:38;;;;;;;17.65;5.85;;;;;;;;;;4991049;28;20054;-70
2022/09/08 12:54:24;;;;;;;10.65;5.63;;;;;;;;;;4991240;28;20077;-69
2022/09/08 12:57:37;;;;;;;10.88;5.57;;;;;;;;;;4991296;28;20054;-70
2022/09/08 13:00:12;;;;;;;11.18;5.82;;;;;;;;;;5010589;28;20152;-69
2022/09/08 13:02:52;;;;;;;8.50;4.88;;;;;;;;;;5008397;28;20540;-71
2022/09/08 13:05:57;;;;;;;46.65;21.80;;;;;;;;;;5050471;28;20065;-70
2022/09/08 13:08:45;;;;;;;61.13;25.63;;;;;;;;;;5050526;28;20053;-69
2022/09/08 13:11:58;;;;;;;26.42;12.35;;;;;;;;;;5050277;28;20496;-70
2022/09/08 13:15:12;;;;;;;78.82;37.58;;;;;;;;;;5050280;28;20049;-70
2022/09/08 13:18:27;;;;;;;26.23;12.77;;;;;;;;;;5009511;28;20054;-69
2022/09/08 13:21:27;;;;;;;15.57;7.80;;;;;;;;;;4971168;28;20062;-70
2022/09/08 13:24:16;;;;;;;19.00;8.70;;;;;;;;;;4971372;28;20498;-70
2022/09/08 13:26:55;;;;;;;28.30;14.38;;;;;;;;;;4971324;28;20419;-71
2022/09/08 13:29:47;;;;;;;13.77;7.80;;;;;;;;;;4921637;29;20052;-69
2022/09/08 13:33:07;;;;;;;22.27;12.10;;;;;;;;;;4913838;29;20064;-70
2022/09/08 13:36:04;;;;;;;20.38;9.05;;;;;;;;;;4913613;29;20067;-69
2022/09/08 13:38:45;;;;;;;18.33;8.95;;;;;;;;;;4940792;28;20059;-71
2022/09/08 13:41:37;;;;;;;15.32;7.70;;;;;;;;;;4882109;29;20052;-70
2022/09/08 13:44:36;;;;;;;15.20;7.38;;;;;;;;;;4913562;29;20056;-71
2022/09/08 13:47:13;;;;;;;14.98;7.10;;;;;;;;;;4932285;29;20059;-70
2022/09/08 13:49:49;;;;;;;16.95;6.93;;;;;;;;;;4932445;29;20064;-70
2022/09/08 13:52:40;;;;;;;11.05;6.18;;;;;;;;;;4970351;28;20058;-73
2022/09/08 13:55:38;;;;;;;10.10;5.80;;;;;;;;;;4900652;29;20055;-73
2022/09/08 13:58:30;;;;;;;11.52;5.43;;;;;;;;;;4915952;29;20064;-72
2022/09/08 14:01:21;;;;;;;12.77;5.65;;;;;;;;;;4932383;29;20083;-72
2022/09/08 14:03:59;;;;;;;11.48;6.32;;;;;;;;;;4947372;29;20055;-73
2022/09/08 14:06:55;;;;;;;9.65;5.60;;;;;;;;;;4931781;29;20056;-74
2022/09/08 14:09:31;;;;;;;11.90;5.63;;;;;;;;;;4912964;29;20056;-74
2022/09/08 14:12:21;;;;;;;12.15;5.70;;;;;;;;;;4913121;29;20060;-73
2022/09/08 14:15:11;;;;;;;10.40;5.60;;;;;;;;;;4914860;29;20052;-75
2022/09/08 14:17:44;;;;;;;9.35;5.53;;;;;;;;;;4892501;29;20056;-75
2022/09/08 14:20:27;;;;;;;11.43;5.07;;;;;;;;;;4912261;29;20060;-73
2022/09/08 14:23:00;;;;;;;13.15;6.20;;;;;;;;;;4896200;29;20406;-75
2022/09/08 14:25:35;;;;;;;13.65;6.38;;;;;;;;;;4862254;29;20049;-73
2022/09/08 14:28:30;;;;;;;12.13;5.35;;;;;;;;;;4886473;29;20054;-74
2022/09/08 14:31:20;;;;;;;12.15;5.68;;;;;;;;;;4822626;29;20070;-73
2022/09/08 14:33:57;;;;;;;13.13;6.30;;;;;;;;;;4902047;29;20052;-71
2022/09/08 14:36:43;;;;;;;12.50;6.40;;;;;;;;;;4861742;29;20123;-71
2022/09/08 14:39:32;;;;;;;10.07;5.68;;;;;;;;;;4887709;29;20065;-71
2022/09/08 14:42:50;;;;;;;11.20;6.35;;;;;;;;;;4873614;29;20056;-69
2022/09/08 14:45:34;;;;;;;10.65;5.60;;;;;;;;;;4878588;29;20479;-68
2022/09/08 14:48:22;;;;;;;12.63;5.50;;;;;;;;;;4884356;29;20063;-69
2022/09/08 14:51:17;;;;;;;9.20;5.82;;;;;;;;;;4911726;29;20551;-73
2022/09/08 14:54:06;;;;;;;9.82;5.93;;;;;;;;;;4892394;29;20044;-68
2022/09/08 14:56:40;;;;;;;10.00;6.00;;;;;;;;;;4893770;29;20049;-70
2022/09/08 14:59:29;;;;;;;10.30;6.07;;;;;;;;;;4893896;29;20567;-72
2022/09/08 15:02:26;;;;;;;11.90;5.70;;;;;;;;;;4893947;29;20138;-73
2022/09/08 15:05:17;;;;;;;10.80;5.45;;;;;;;;;;4912410;29;20072;-70
2022/09/08 15:07:59;;;;;;;10.25;5.93;;;;;;;;;;4912749;29;20056;-70
2022/09/08 15:10:37;;;;;;;10.50;5.85;;;;;;;;;;4928004;29;20582;-71
2022/09/08 15:13:11;;;;;;;12.95;5.70;;;;;;;;;;4950574;29;20432;-69
2022/09/08 15:15:44;;;;;;;14.45;6.15;;;;;;;;;;4903316;29;20055;-69
2022/09/08 15:18:17;;;;;;;14.68;5.43;;;;;;;;;;4950823;29;20512;-70
2022/09/08 15:21:16;;;;;;;9.45;5.63;;;;;;;;;;4924506;29;20539;-68
2022/09/08 15:23:49;;;;;;;10.75;5.60;;;;;;;;;;4910959;29;20064;-68
2022/09/08 15:26:40;;;;;;;11.90;6.68;;;;;;;;;;4893381;29;20525;-69
2022/09/08 15:29:14;;;;;;;9.68;5.90;;;;;;;;;;4904798;29;20056;-71
2022/09/08 15:32:08;;;;;;;12.20;5.72;;;;;;;;;;4893497;29;20056;-70
2022/09/08 15:34:45;;;;;;;10.55;5.57;;;;;;;;;;4938389;29;20091;-69
2022/09/08 15:37:22;;;;;;;10.05;6.18;;;;;;;;;;4963640;28;20055;-67
2022/09/08 15:40:04;;;;;;;11.27;5.88;;;;;;;;;;4970215;28;20059;-68
2022/09/08 15:43:04;;;;;;;10.63;5.55;;;;;;;;;;4983455;28;20050;-68
2022/09/08 15:45:41;;;;;;;9.10;5.55;;;;;;;;;;4966858;28;20118;-68
2022/09/08 15:48:30;;;;;;;10.50;5.72;;;;;;;;;;4934042;29;20040;-67
2022/09/08 15:51:40;;;;;;;9.63;5.43;;;;;;;;;;4958373;28;20051;-66
2022/09/08 15:54:26;;;;;;;11.55;6.07;;;;;;;;;;4953571;29;20070;-67
2022/09/08 15:57:17;;;;;;;11.63;5.93;;;;;;;;;;4915056;29;20574;-70
2022/09/08 16:00:22;;;;;;;8.90;5.82;;;;;;;;;;4915377;29;20063;-67
2022/09/08 16:03:04;;;;;;;11.02;5.57;;;;;;;;;;4915312;29;20060;-68
2022/09/08 16:05:43;;;;;;;9.27;5.47;;;;;;;;;;4913059;29;20064;-68
2022/09/08 16:08:18;;;;;;;12.25;5.30;;;;;;;;;;4877895;29;20073;-67
2022/09/08 16:11:25;;;;;;;10.60;5.70;;;;;;;;;;4862113;29;20060;-70